Time;durP1;ratioP1;P1;durP2;ratioP2;P2;SDS_P1;SDS_P2;PMS_P1;PMS_P2;Temp;Humidity;BMP_temperature;BMP_pressure;BME280_temperature;BME280_humidity;BME280_pressure;Samples;Min_cycle;Max_cycle;Signal;HPM_P1;HPM_P2
2022/06/27 00:00:17;;;;;;;1.70;1.60;;;20.90;99.90;;;;;;4987377;28;20461;-62
2022/06/27 00:02:43;;;;;;;2.20;2.00;;;21.00;99.90;;;;;;4982551;28;20244;-62
2022/06/27 00:05:10;;;;;;;1.83;1.60;;;21.10;99.90;;;;;;4986528;28;20231;-62
2022/06/27 00:07:36;;;;;;;1.60;1.50;;;21.10;99.90;;;;;;4992591;28;20196;-62
2022/06/27 00:10:03;;;;;;;2.17;1.50;;;20.90;99.90;;;;;;4988265;28;20203;-60
2022/06/27 00:12:29;;;;;;;1.50;1.40;;;20.90;99.90;;;;;;4991093;28;20648;-60
2022/06/27 00:14:54;;;;;;;1.30;1.20;;;20.80;99.90;;;;;;4991797;28;20211;-60
2022/06/27 00:17:20;;;;;;;1.37;0.90;;;20.60;99.90;;;;;;4989649;28;20462;-60
2022/06/27 00:19:46;;;;;;;2.53;1.40;;;20.50;99.90;;;;;;4989776;28;20195;-60
2022/06/27 00:22:11;;;;;;;1.30;0.97;;;20.00;99.90;;;;;;4986975;28;20769;-60
2022/06/27 00:24:37;;;;;;;1.87;1.10;;;20.30;99.90;;;;;;4990114;28;20214;-59
2022/06/27 00:27:03;;;;;;;4.50;1.50;;;20.20;99.90;;;;;;4989818;28;20205;-60
2022/06/27 00:29:28;;;;;;;3.43;2.07;;;20.20;99.90;;;;;;4987039;28;20200;-60
2022/06/27 00:31:54;;;;;;;3.53;1.17;;;20.10;99.90;;;;;;4991811;28;20513;-60
2022/06/27 00:34:20;;;;;;;1.37;0.90;;;19.70;99.90;;;;;;4989546;28;20561;-60
2022/06/27 00:36:45;;;;;;;2.17;1.40;;;19.60;99.90;;;;;;4992967;28;20219;-59
2022/06/27 00:39:11;;;;;;;1.33;0.87;;;19.40;99.90;;;;;;4990680;28;20210;-60
2022/06/27 00:41:36;;;;;;;4.63;1.17;;;19.20;99.90;;;;;;4993220;28;20759;-61
2022/06/27 00:44:02;;;;;;;1.80;1.30;;;19.10;99.90;;;;;;4990445;28;20219;-61
2022/06/27 00:46:29;;;;;;;2.30;1.33;;;18.90;99.90;;;;;;4992156;28;20191;-61
2022/06/27 00:48:55;;;;;;;3.75;1.42;;;18.60;99.90;;;;;;4987940;28;20191;-61
2022/06/27 00:51:24;;;;;;;3.70;1.70;;;18.40;99.90;;;;;;4991463;28;20242;-61
2022/06/27 00:53:53;;;;;;;3.45;1.42;;;18.30;99.90;;;;;;4990733;28;20191;-61
2022/06/27 00:56:19;;;;;;;3.45;1.70;;;18.30;99.90;;;;;;4985054;28;20270;-61
2022/06/27 00:58:44;;;;;;;1.67;1.33;;;18.30;99.90;;;;;;4990854;28;20274;-61
2022/06/27 01:01:10;;;;;;;2.30;1.40;;;18.30;99.90;;;;;;4988477;28;20211;-62
2022/06/27 01:03:36;;;;;;;1.50;1.23;;;18.30;99.90;;;;;;4988931;28;20196;-61
2022/06/27 01:06:03;;;;;;;1.90;1.23;;;18.20;99.90;;;;;;4990319;28;20234;-61
2022/06/27 01:08:29;;;;;;;3.15;1.35;;;18.20;99.90;;;;;;4988477;28;20188;-61
2022/06/27 01:10:54;;;;;;;1.80;1.40;;;18.20;99.90;;;;;;4991095;28;20215;-61
2022/06/27 01:13:21;;;;;;;1.57;1.30;;;18.30;99.90;;;;;;4988632;28;20637;-61
2022/06/27 01:15:47;;;;;;;2.28;1.40;;;18.30;99.90;;;;;;4991438;28;20740;-61
2022/06/27 01:18:13;;;;;;;1.60;1.50;;;18.30;99.90;;;;;;4986706;28;20194;-60
2022/06/27 01:20:42;;;;;;;1.48;1.10;;;18.20;99.90;;;;;;4984770;28;20460;-60
2022/06/27 01:23:08;;;;;;;1.48;1.02;;;18.10;99.90;;;;;;4986500;28;20190;-61
2022/06/27 01:25:37;;;;;;;1.53;1.40;;;18.00;99.90;;;;;;4981517;28;20212;-61
2022/06/27 01:28:05;;;;;;;1.98;1.10;;;18.10;99.90;;;;;;4986400;28;20803;-61
2022/06/27 01:30:31;;;;;;;1.70;1.33;;;17.90;99.90;;;;;;4986877;28;20294;-62
2022/06/27 01:32:56;;;;;;;1.48;1.00;;;17.90;99.90;;;;;;4987553;28;20199;-61
2022/06/27 01:35:23;;;;;;;1.30;1.00;;;17.90;99.90;;;;;;4989238;28;20191;-62
2022/06/27 01:37:48;;;;;;;1.55;1.00;;;18.00;99.90;;;;;;4989465;28;20195;-62
2022/06/27 01:40:15;;;;;;;1.33;1.10;;;18.10;99.90;;;;;;4991341;28;20222;-62
2022/06/27 01:42:42;;;;;;;1.50;1.33;;;18.00;99.90;;;;;;4988655;28;20196;-62
2022/06/27 01:45:08;;;;;;;3.20;1.45;;;18.00;99.90;;;;;;4988415;28;20220;-61
2022/06/27 01:47:34;;;;;;;1.40;1.15;;;17.90;99.90;;;;;;4988719;28;20195;-62
2022/06/27 01:50:00;;;;;;;1.97;1.20;;;18.00;99.90;;;;;;4986720;28;20217;-62
2022/06/27 01:52:28;;;;;;;0.93;0.93;;;18.20;99.90;;;;;;4989265;28;20609;-62
2022/06/27 01:54:54;;;;;;;1.45;1.15;;;18.00;99.90;;;;;;4989263;28;20594;-62
2022/06/27 01:57:21;;;;;;;2.45;1.30;;;18.00;99.90;;;;;;4986160;28;20237;-61
2022/06/27 01:59:49;;;;;;;2.22;1.20;;;17.90;99.90;;;;;;4988214;28;20195;-61
2022/06/27 02:02:16;;;;;;;1.25;1.15;;;17.90;99.90;;;;;;4988393;28;20184;-61
2022/06/27 02:04:42;;;;;;;1.50;1.40;;;17.90;99.90;;;;;;4987567;28;20207;-61
2022/06/27 02:07:08;;;;;;;2.08;1.00;;;17.90;99.90;;;;;;4989818;28;20681;-61
2022/06/27 02:09:34;;;;;;;3.17;1.10;;;18.00;99.90;;;;;;4981127;28;20184;-61
2022/06/27 02:12:19;;;;;;;1.50;1.20;;;18.00;99.90;;;;;;4982597;28;20203;-61
2022/06/27 02:14:52;;;;;;;1.10;1.00;;;18.10;99.90;;;;;;4988866;28;20187;-61
2022/06/27 02:17:20;;;;;;;1.83;1.20;;;18.10;99.90;;;;;;4989556;28;20214;-61
2022/06/27 02:19:45;;;;;;;1.50;1.25;;;18.10;99.90;;;;;;4989585;28;20254;-61
2022/06/27 02:22:13;;;;;;;1.20;1.10;;;18.10;99.90;;;;;;4984930;28;20215;-61
2022/06/27 02:24:39;;;;;;;1.23;1.02;;;18.10;99.90;;;;;;4987956;28;20986;-61
2022/06/27 02:27:06;;;;;;;2.50;1.30;;;18.00;99.90;;;;;;4988357;28;20198;-61
2022/06/27 02:29:33;;;;;;;1.30;1.20;;;18.00;99.90;;;;;;4989819;28;20191;-61
2022/06/27 02:32:01;;;;;;;1.35;1.25;;;17.80;99.90;;;;;;4988520;28;20242;-61
2022/06/27 02:34:28;;;;;;;1.90;1.30;;;18.00;99.90;;;;;;4988975;28;20697;-61
2022/06/27 02:36:55;;;;;;;3.65;1.20;;;17.90;99.90;;;;;;4983285;28;20184;-61
2022/06/27 02:39:23;;;;;;;1.48;1.38;;;17.80;99.90;;;;;;4988018;28;20195;-61
2022/06/27 02:41:53;;;;;;;2.38;1.25;;;17.90;99.90;;;;;;4986248;28;20215;-61
2022/06/27 02:44:21;;;;;;;3.20;1.20;;;17.80;99.90;;;;;;4987708;28;20210;-61
2022/06/27 02:46:47;;;;;;;1.88;1.27;;;18.10;99.90;;;;;;4988308;28;20191;-61
2022/06/27 02:49:13;;;;;;;1.65;1.00;;;17.90;99.90;;;;;;4988194;28;20179;-61
2022/06/27 02:51:49;;;;;;;2.70;1.30;;;17.80;99.90;;;;;;4990527;28;20688;-61
2022/06/27 02:54:30;;;;;;;2.05;1.50;;;17.90;99.90;;;;;;4988144;28;20202;-62
2022/06/27 02:57:04;;;;;;;1.45;1.35;;;17.70;99.90;;;;;;4987818;28;20775;-61
2022/06/27 02:59:35;;;;;;;2.30;1.30;;;17.60;99.90;;;;;;4987426;28;20617;-61
2022/06/27 03:02:02;;;;;;;1.38;1.27;;;17.80;99.90;;;;;;4988754;28;20213;-61
2022/06/27 03:04:27;;;;;;;2.45;1.33;;;17.70;99.90;;;;;;4985474;28;20207;-61
2022/06/27 03:06:53;;;;;;;1.83;1.40;;;17.70;99.90;;;;;;4990995;28;20191;-62
2022/06/27 03:09:19;;;;;;;1.53;1.43;;;17.70;99.90;;;;;;4988566;28;20242;-61
2022/06/27 03:11:48;;;;;;;1.97;1.60;;;17.70;99.90;;;;;;4988988;28;20265;-61
2022/06/27 03:14:14;;;;;;;1.85;1.40;;;17.60;99.90;;;;;;4988003;28;20545;-61
2022/06/27 03:16:40;;;;;;;4.43;2.00;;;17.60;99.90;;;;;;4987459;28;20199;-61
2022/06/27 03:19:06;;;;;;;2.77;1.50;;;17.70;99.90;;;;;;4980485;28;20195;-62
2022/06/27 03:21:32;;;;;;;1.67;1.50;;;17.60;99.90;;;;;;4985031;28;20458;-61
2022/06/27 03:23:57;;;;;;;1.70;1.60;;;17.60;99.90;;;;;;4980792;28;20241;-62
2022/06/27 03:26:23;;;;;;;4.30;1.90;;;17.60;99.90;;;;;;4979127;28;20192;-62
2022/06/27 03:28:49;;;;;;;3.33;2.00;;;17.80;99.90;;;;;;4983378;28;20266;-61
2022/06/27 03:31:15;;;;;;;2.53;2.10;;;17.70;99.90;;;;;;4982608;28;20278;-61
2022/06/27 03:33:41;;;;;;;2.50;1.57;;;17.80;99.90;;;;;;4987995;28;20438;-62
2022/06/27 03:36:08;;;;;;;1.90;1.70;;;18.10;99.90;;;;;;4981612;28;20183;-61
2022/06/27 03:38:34;;;;;;;2.00;1.80;;;17.70;99.90;;;;;;4983716;28;20278;-61
2022/06/27 03:41:00;;;;;;;1.50;1.40;;;17.70;99.90;;;;;;4986607;28;20282;-61
2022/06/27 03:43:27;;;;;;;2.25;1.52;;;17.70;99.90;;;;;;4991293;28;20888;-61
2022/06/27 03:45:54;;;;;;;6.93;2.38;;;17.70;99.90;;;;;;4992291;28;20219;-61
2022/06/27 03:51:04;;;;;;;2.33;1.88;;;17.80;99.90;;;;;;4991950;28;20213;-62
2022/06/27 03:53:30;;;;;;;1.58;1.48;;;18.00;99.90;;;;;;4992064;28;20199;-61
2022/06/27 03:55:56;;;;;;;2.00;1.90;;;17.80;99.90;;;;;;4989981;28;20192;-61
2022/06/27 03:58:21;;;;;;;2.37;1.70;;;18.10;99.90;;;;;;4991801;28;20777;-61
2022/06/27 04:00:47;;;;;;;5.70;2.20;;;17.80;99.90;;;;;;4989694;28;20711;-61
2022/06/27 04:03:13;;;;;;;2.27;2.07;;;17.90;99.90;;;;;;4991681;28;20211;-61
2022/06/27 04:05:38;;;;;;;2.47;2.27;;;17.90;99.90;;;;;;4992529;28;20215;-61
2022/06/27 04:08:04;;;;;;;4.40;4.00;;;18.30;99.90;;;;;;4987000;28;20301;-61
2022/06/27 04:10:30;;;;;;;2.35;1.85;;;18.00;99.90;;;;;;4987783;28;20246;-61
2022/06/27 04:12:57;;;;;;;3.77;1.90;;;17.90;99.90;;;;;;4982943;28;20649;-61
2022/06/27 04:15:22;;;;;;;3.45;2.03;;;18.00;99.90;;;;;;4990921;28;20183;-61
2022/06/27 04:17:48;;;;;;;2.33;2.10;;;17.90;99.90;;;;;;4987177;28;20198;-61
2022/06/27 04:20:14;;;;;;;4.10;3.40;;;18.00;99.90;;;;;;4988102;28;20234;-61
2022/06/27 04:22:39;;;;;;;3.50;2.43;;;18.00;99.90;;;;;;4989704;28;20196;-61
2022/06/27 04:25:05;;;;;;;2.60;1.83;;;18.00;99.90;;;;;;4988327;28;20222;-61
2022/06/27 04:27:31;;;;;;;3.78;1.70;;;18.10;99.90;;;;;;4990591;28;20210;-61
2022/06/27 04:29:57;;;;;;;2.83;2.07;;;18.00;99.90;;;;;;4992508;28;20656;-61
2022/06/27 04:32:25;;;;;;;4.00;1.80;;;18.10;99.90;;;;;;4988217;28;20323;-62
2022/06/27 04:34:50;;;;;;;3.20;1.88;;;18.20;99.90;;;;;;4987270;28;20234;-61
2022/06/27 04:37:17;;;;;;;4.57;2.10;;;18.30;99.90;;;;;;4992631;28;20949;-62
2022/06/27 04:39:43;;;;;;;2.28;1.63;;;18.30;99.90;;;;;;4989214;28;20448;-62
2022/06/27 04:42:10;;;;;;;1.92;1.65;;;18.40;99.90;;;;;;4990426;28;20215;-61
2022/06/27 04:44:36;;;;;;;1.67;1.58;;;18.50;99.90;;;;;;4987685;28;20719;-61
2022/06/27 04:47:08;;;;;;;2.25;1.60;;;18.60;99.90;;;;;;4985189;28;20239;-61
2022/06/27 04:49:37;;;;;;;1.88;1.75;;;18.60;99.90;;;;;;4987554;28;20530;-61
2022/06/27 04:52:06;;;;;;;2.75;1.77;;;18.60;99.90;;;;;;4987574;28;20219;-61
2022/06/27 04:54:33;;;;;;;3.50;2.10;;;18.60;99.90;;;;;;4988058;28;20207;-61
2022/06/27 04:56:58;;;;;;;3.70;2.10;;;18.70;99.90;;;;;;4992549;28;20175;-61
2022/06/27 04:59:25;;;;;;;2.10;1.57;;;18.70;99.90;;;;;;4990569;28;20665;-61
2022/06/27 05:01:50;;;;;;;1.60;1.50;;;18.90;99.90;;;;;;4983827;28;20270;-61
2022/06/27 05:04:20;;;;;;;2.50;2.03;;;18.80;99.90;;;;;;4987357;28;20673;-61
2022/06/27 05:06:47;;;;;;;5.70;1.80;;;19.00;99.90;;;;;;4985699;28;21057;-61
2022/06/27 05:09:14;;;;;;;2.05;1.85;;;19.10;99.90;;;;;;4991514;28;20668;-61
2022/06/27 05:11:40;;;;;;;3.85;2.40;;;19.60;99.90;;;;;;4989708;28;20616;-62
2022/06/27 05:14:06;;;;;;;1.80;1.70;;;19.30;99.90;;;;;;4991152;28;20195;-62
2022/06/27 05:16:33;;;;;;;3.63;2.80;;;19.50;99.90;;;;;;4989487;28;20210;-61
2022/06/27 05:18:59;;;;;;;5.07;2.83;;;19.70;99.90;;;;;;4989868;28;20192;-61
2022/06/27 05:21:25;;;;;;;2.30;2.10;;;19.80;99.90;;;;;;4990913;28;20268;-68
2022/06/27 05:23:52;;;;;;;1.55;1.45;;;20.20;99.90;;;;;;4990460;28;20179;-68
2022/06/27 05:26:18;;;;;;;2.70;2.50;;;20.00;99.90;;;;;;4992034;28;20597;-68
2022/06/27 05:28:44;;;;;;;3.38;2.13;;;20.20;99.90;;;;;;4990543;28;20211;-68
2022/06/27 05:31:10;;;;;;;2.33;2.13;;;20.30;99.90;;;;;;4988168;28;20207;-68
2022/06/27 05:33:36;;;;;;;3.40;1.53;;;20.40;99.90;;;;;;4992951;28;20195;-70
2022/06/27 05:36:04;;;;;;;2.80;2.20;;;20.40;99.90;;;;;;4990868;28;20184;-68
2022/06/27 05:38:31;;;;;;;2.15;2.05;;;20.50;99.90;;;;;;4987997;28;20187;-74
2022/06/27 05:40:57;;;;;;;2.10;1.90;;;20.50;99.90;;;;;;4986400;28;20295;-66
2022/06/27 05:43:24;;;;;;;1.83;1.73;;;20.60;99.90;;;;;;4988487;28;20561;-67
2022/06/27 05:45:49;;;;;;;2.85;2.40;;;20.70;99.90;;;;;;4990276;28;20211;-67
2022/06/27 05:48:15;;;;;;;4.10;3.70;;;20.80;99.90;;;;;;4988911;28;20548;-68
2022/06/27 05:50:41;;;;;;;1.90;1.80;;;20.90;99.90;;;;;;4977098;28;20688;-67
2022/06/27 05:53:06;;;;;;;3.00;1.57;;;20.90;99.90;;;;;;4991283;28;20282;-67
2022/06/27 05:55:33;;;;;;;2.13;1.37;;;20.90;99.90;;;;;;4986580;28;20657;-68
2022/06/27 05:58:02;;;;;;;2.13;1.60;;;20.60;99.90;;;;;;4989138;28;20626;-66
2022/06/27 06:00:28;;;;;;;1.85;1.75;;;21.00;99.90;;;;;;4984066;28;20358;-63
2022/06/27 06:02:54;;;;;;;1.90;1.50;;;21.00;99.90;;;;;;4984356;28;20272;-62
2022/06/27 06:05:21;;;;;;;2.45;1.80;;;21.00;99.90;;;;;;4985762;28;20211;-62
2022/06/27 06:07:48;;;;;;;1.98;1.55;;;21.10;99.90;;;;;;4983475;28;20188;-62
2022/06/27 06:10:14;;;;;;;1.60;1.50;;;21.10;99.90;;;;;;4987558;28;20213;-62
2022/06/27 06:12:40;;;;;;;2.33;1.52;;;21.20;99.90;;;;;;4984253;28;20192;-69
2022/06/27 06:15:07;;;;;;;1.60;1.50;;;21.10;99.90;;;;;;4986805;28;20258;-68
2022/06/27 06:17:33;;;;;;;1.65;1.55;;;21.10;99.90;;;;;;4988420;28;20633;-63
2022/06/27 06:19:59;;;;;;;1.70;1.60;;;21.10;99.90;;;;;;4988479;28;20704;-61
2022/06/27 06:22:25;;;;;;;2.03;1.50;;;21.10;99.90;;;;;;4991107;28;20207;-62
2022/06/27 06:24:51;;;;;;;2.85;1.65;;;21.10;99.90;;;;;;4987180;28;20540;-62
2022/06/27 06:27:18;;;;;;;8.67;7.50;;;21.20;99.90;;;;;;4989471;28;20183;-63
2022/06/27 06:29:44;;;;;;;2.28;2.08;;;21.30;99.90;;;;;;4988072;28;20509;-63
2022/06/27 06:32:11;;;;;;;3.17;1.85;;;21.20;99.90;;;;;;4984350;28;20207;-65
2022/06/27 06:34:37;;;;;;;3.65;3.13;;;21.50;99.90;;;;;;4988558;28;20564;-62
2022/06/27 06:37:03;;;;;;;2.55;2.15;;;21.70;99.90;;;;;;4980526;28;20192;-64
2022/06/27 06:39:29;;;;;;;2.22;1.50;;;21.70;99.90;;;;;;4987426;28;20242;-61
2022/06/27 06:41:57;;;;;;;1.60;1.40;;;21.70;99.90;;;;;;4986765;28;20203;-65
2022/06/27 06:44:24;;;;;;;2.53;1.50;;;21.90;99.90;;;;;;4990287;28;20203;-65
2022/06/27 06:46:55;;;;;;;1.70;1.60;;;22.20;99.90;;;;;;4989503;28;20179;-66
2022/06/27 06:49:21;;;;;;;2.70;2.33;;;22.30;99.90;;;;;;4979945;28;20438;-63
2022/06/27 06:51:48;;;;;;;3.83;3.00;;;22.30;99.90;;;;;;4989387;28;20489;-64
2022/06/27 06:54:15;;;;;;;2.23;2.13;;;22.60;99.90;;;;;;4989612;28;20533;-64
2022/06/27 06:56:41;;;;;;;2.27;2.03;;;22.70;99.90;;;;;;4984697;28;20447;-67
2022/06/27 06:59:07;;;;;;;1.80;1.30;;;23.00;99.90;;;;;;4986393;28;20491;-67
2022/06/27 07:01:35;;;;;;;1.53;1.33;;;22.90;99.90;;;;;;4989552;28;20462;-70
2022/06/27 07:04:01;;;;;;;3.40;1.50;;;23.10;99.90;;;;;;4977635;28;20447;-72
2022/06/27 07:06:29;;;;;;;5.03;4.43;;;23.50;99.90;;;;;;4984498;28;20442;-73
2022/06/27 07:08:57;;;;;;;3.57;2.10;;;24.90;99.90;;;;;;4986102;28;20440;-70
2022/06/27 07:11:27;;;;;;;2.20;1.33;;;26.40;99.90;;;;;;4979586;28;20536;-73
2022/06/27 07:13:53;;;;;;;1.90;1.37;;;26.20;98.60;;;;;;4985116;28;20435;-72
2022/06/27 07:16:20;;;;;;;1.60;1.33;;;25.00;99.90;;;;;;4992589;28;20454;-72
2022/06/27 07:18:46;;;;;;;2.00;1.80;;;25.40;99.90;;;;;;4989342;28;20443;-72
2022/06/27 07:21:17;;;;;;;1.20;1.10;;;25.60;99.90;;;;;;4993457;28;20459;-72
2022/06/27 07:23:46;;;;;;;2.03;1.83;;;25.40;99.90;;;;;;4993070;28;20450;-73
2022/06/27 07:26:12;;;;;;;4.27;1.60;;;27.60;98.50;;;;;;4992278;28;21010;-70
2022/06/27 07:28:40;;;;;;;2.23;1.20;;;28.70;94.40;;;;;;4993220;28;20443;-72
2022/06/27 07:31:11;;;;;;;2.83;1.40;;;29.20;92.80;;;;;;4982344;28;20551;-70
2022/06/27 07:33:38;;;;;;;1.27;1.17;;;29.00;92.10;;;;;;4984935;28;20854;-68
2022/06/27 07:36:06;;;;;;;3.10;1.20;;;28.40;92.20;;;;;;4992798;28;20457;-70
2022/06/27 07:38:41;;;;;;;1.27;1.10;;;27.20;93.70;;;;;;4983690;28;20453;-72
2022/06/27 07:41:09;;;;;;;2.73;1.90;;;26.50;95.50;;;;;;4984515;28;20540;-73
2022/06/27 07:43:36;;;;;;;1.50;1.40;;;26.10;96.40;;;;;;4979589;28;20438;-75
2022/06/27 07:46:02;;;;;;;1.73;1.30;;;25.40;97.70;;;;;;4980836;28;20972;-74
2022/06/27 07:48:29;;;;;;;1.70;1.00;;;25.10;98.20;;;;;;4990598;28;20428;-78
2022/06/27 07:50:56;;;;;;;1.40;1.20;;;25.20;98.70;;;;;;4995437;28;20451;-69
2022/06/27 07:53:22;;;;;;;1.27;1.17;;;25.20;98.90;;;;;;4993818;28;20455;-70
2022/06/27 07:55:53;;;;;;;1.63;1.10;;;25.00;98.80;;;;;;4993580;28;20448;-68
2022/06/27 07:58:26;;;;;;;1.53;1.10;;;24.40;99.90;;;;;;4998460;28;20470;-72
2022/06/27 08:00:52;;;;;;;1.60;1.07;;;24.10;99.90;;;;;;4990310;28;20537;-72
2022/06/27 08:06:08;;;;;;;2.10;1.10;;;24.50;99.90;;;;;;4990483;28;20497;-71
2022/06/27 08:08:41;;;;;;;1.30;1.20;;;25.50;99.80;;;;;;4993396;28;20461;-78
2022/06/27 08:11:16;;;;;;;2.63;2.43;;;27.50;96.90;;;;;;4989518;28;20982;-64
2022/06/27 08:13:43;;;;;;;1.70;1.07;;;29.00;92.20;;;;;;4993518;28;20520;-74
2022/06/27 08:16:12;;;;;;;1.40;1.20;;;29.80;88.10;;;;;;4991403;28;20927;-75
2022/06/27 08:18:38;;;;;;;1.37;1.10;;;29.00;90.30;;;;;;4984628;28;20579;-72
2022/06/27 08:21:05;;;;;;;1.40;1.23;;;28.50;90.80;;;;;;4991756;28;20458;-74
2022/06/27 08:23:31;;;;;;;1.27;1.17;;;28.00;92.20;;;;;;4983856;28;20443;-70
2022/06/27 08:25:57;;;;;;;1.53;0.80;;;28.00;91.90;;;;;;4988810;28;20990;-68
2022/06/27 08:28:25;;;;;;;2.00;1.30;;;27.20;92.30;;;;;;4989837;28;20450;-74
2022/06/27 08:30:52;;;;;;;1.40;1.00;;;26.60;93.70;;;;;;4990860;28;20465;-68
2022/06/27 08:33:18;;;;;;;1.53;1.20;;;26.00;94.50;;;;;;4987039;28;20463;-68
2022/06/27 08:35:47;;;;;;;1.67;1.30;;;25.60;96.00;;;;;;4990202;28;20500;-69
2022/06/27 08:38:15;;;;;;;2.23;1.13;;;25.60;96.10;;;;;;4981586;28;20794;-69
2022/06/27 08:40:41;;;;;;;2.63;1.10;;;25.90;96.30;;;;;;4982882;28;20480;-67
2022/06/27 08:43:10;;;;;;;1.50;1.20;;;26.50;95.70;;;;;;4982508;28;20446;-68
2022/06/27 08:45:36;;;;;;;1.23;0.90;;;29.40;91.30;;;;;;4989082;28;20466;-68
2022/06/27 08:48:07;;;;;;;1.20;0.90;;;29.90;86.30;;;;;;4982292;28;20497;-70
2022/06/27 08:50:36;;;;;;;1.30;1.20;;;29.10;87.70;;;;;;4991540;28;20851;-66
2022/06/27 08:53:04;;;;;;;1.70;1.30;;;28.10;90.50;;;;;;4980435;28;20545;-71
2022/06/27 08:55:33;;;;;;;1.10;1.00;;;27.00;92.10;;;;;;4992799;28;20521;-69
2022/06/27 08:58:05;;;;;;;2.00;1.40;;;26.60;92.80;;;;;;4984879;28;21040;-70
2022/06/27 09:00:37;;;;;;;2.03;1.43;;;25.90;94.10;;;;;;4983507;28;20465;-66
2022/06/27 09:03:03;;;;;;;1.80;1.30;;;25.50;94.90;;;;;;4976795;28;20802;-73
2022/06/27 09:05:31;;;;;;;1.50;1.20;;;25.30;95.20;;;;;;4987664;28;20482;-73
2022/06/27 09:08:05;;;;;;;1.67;1.40;;;25.20;95.80;;;;;;4987215;28;20439;-70
2022/06/27 09:10:32;;;;;;;1.67;1.33;;;25.00;96.90;;;;;;4984638;28;20825;-61
2022/06/27 09:13:07;;;;;;;1.47;1.30;;;24.70;97.60;;;;;;4990421;28;20800;-61
2022/06/27 09:15:53;;;;;;;2.13;1.47;;;24.20;98.60;;;;;;4987697;28;20438;-60
2022/06/27 09:18:25;;;;;;;1.33;1.23;;;24.00;99.50;;;;;;4985424;28;20470;-61
2022/06/27 09:21:01;;;;;;;1.70;1.60;;;24.00;99.80;;;;;;4986032;28;20476;-61
2022/06/27 09:23:32;;;;;;;2.50;1.40;;;24.00;99.50;;;;;;4988220;28;21142;-61
2022/06/27 09:26:06;;;;;;;1.37;1.27;;;24.00;99.80;;;;;;4982961;28;20474;-59
2022/06/27 09:28:39;;;;;;;1.90;1.33;;;24.10;99.70;;;;;;4987967;28;20438;-59
2022/06/27 09:31:10;;;;;;;1.23;1.10;;;24.10;99.90;;;;;;4986896;28;20882;-58
2022/06/27 09:33:41;;;;;;;4.57;2.60;;;24.10;99.90;;;;;;4987915;28;21050;-59
2022/06/27 09:36:15;;;;;;;3.60;1.30;;;24.30;99.90;;;;;;4985804;28;20973;-60
2022/06/27 09:38:42;;;;;;;1.93;1.47;;;24.00;99.90;;;;;;4985151;28;20869;-59
2022/06/27 09:41:11;;;;;;;2.10;1.97;;;24.10;99.90;;;;;;4982139;28;20464;-59
2022/06/27 09:43:42;;;;;;;2.43;1.47;;;24.10;99.90;;;;;;4985214;28;20453;-59
2022/06/27 09:46:10;;;;;;;2.50;1.47;;;24.10;99.90;;;;;;4990131;28;20528;-60
2022/06/27 09:48:38;;;;;;;1.50;1.40;;;24.40;99.90;;;;;;4988384;28;20474;-59
2022/06/27 09:51:04;;;;;;;1.50;1.40;;;24.40;99.90;;;;;;4988790;28;20984;-59
2022/06/27 09:53:30;;;;;;;2.03;1.63;;;24.70;99.60;;;;;;4982293;28;20563;-60
2022/06/27 09:56:00;;;;;;;2.13;1.93;;;25.00;99.40;;;;;;4986486;28;20478;-60
2022/06/27 09:58:27;;;;;;;2.13;1.93;;;25.20;99.00;;;;;;4986520;28;20446;-60
2022/06/27 10:00:53;;;;;;;2.43;1.80;;;25.40;99.00;;;;;;4989173;28;20472;-61
2022/06/27 10:03:20;;;;;;;1.67;1.30;;;25.40;98.70;;;;;;4982936;28;20948;-60
2022/06/27 10:05:45;;;;;;;1.60;1.50;;;25.30;98.00;;;;;;4987307;28;20522;-60
2022/06/27 10:08:12;;;;;;;1.67;1.57;;;25.30;98.00;;;;;;4988635;28;20806;-60
2022/06/27 10:11:04;;;;;;;3.00;1.70;;;24.80;99.10;;;;;;4988354;28;20593;-59
2022/06/27 10:13:30;;;;;;;1.73;1.63;;;24.90;99.60;;;;;;4988972;28;20459;-57
2022/06/27 10:15:58;;;;;;;1.97;1.87;;;24.90;99.50;;;;;;4988539;28;20446;-58
2022/06/27 10:18:24;;;;;;;3.13;2.20;;;24.80;99.90;;;;;;4986350;28;20188;-59
2022/06/27 10:20:51;;;;;;;2.20;2.00;;;24.60;99.90;;;;;;4985016;28;20466;-57
2022/06/27 10:23:18;;;;;;;1.87;1.77;;;24.10;99.90;;;;;;4985353;28;20955;-58
2022/06/27 10:25:48;;;;;;;3.50;2.20;;;24.00;99.90;;;;;;4988420;28;20509;-59
2022/06/27 10:28:15;;;;;;;3.13;1.90;;;23.90;99.90;;;;;;4987939;28;20470;-73
2022/06/27 10:30:42;;;;;;;1.97;1.70;;;23.90;99.90;;;;;;4983003;28;20992;-69
2022/06/27 10:33:23;;;;;;;2.40;2.20;;;23.90;99.90;;;;;;4988741;28;20435;-66
2022/06/27 10:36:10;;;;;;;1.80;1.70;;;23.90;99.90;;;;;;4986827;28;20955;-68
2022/06/27 10:38:48;;;;;;;4.43;3.00;;;24.00;99.90;;;;;;4987105;28;20450;-69
2022/06/27 10:41:20;;;;;;;2.70;2.50;;;23.70;99.90;;;;;;4984285;28;20461;-71
2022/06/27 10:43:54;;;;;;;3.50;2.30;;;23.70;99.90;;;;;;4984616;28;20605;-74
2022/06/27 10:46:19;;;;;;;2.83;2.53;;;23.70;99.90;;;;;;4995694;28;20601;-71
2022/06/27 10:48:50;;;;;;;2.73;2.30;;;23.50;99.90;;;;;;4984367;28;20442;-70
2022/06/27 10:51:28;;;;;;;2.77;2.33;;;23.60;99.90;;;;;;4989370;28;20211;-71
2022/06/27 10:54:05;;;;;;;2.93;2.57;;;23.70;99.90;;;;;;4981676;28;21060;-70
2022/06/27 10:56:47;;;;;;;2.70;2.50;;;23.60;99.90;;;;;;4986174;28;20438;-70
2022/06/27 10:59:13;;;;;;;3.40;3.10;;;23.40;99.90;;;;;;4983530;28;20525;-67
2022/06/27 11:02:03;;;;;;;2.20;2.10;;;23.40;99.90;;;;;;4983886;28;20848;-72
2022/06/27 11:04:34;;;;;;;4.30;3.90;;;23.60;99.90;;;;;;4981959;28;20199;-69
2022/06/27 11:07:05;;;;;;;3.13;2.87;;;23.70;99.90;;;;;;4988445;28;20441;-66
2022/06/27 11:09:45;;;;;;;2.70;2.50;;;23.60;99.90;;;;;;4986750;28;20476;-74
2022/06/27 11:12:16;;;;;;;3.27;2.57;;;23.60;99.90;;;;;;4988097;28;20461;-70
2022/06/27 11:14:53;;;;;;;3.70;2.73;;;23.90;99.90;;;;;;4986394;28;20443;-67
2022/06/27 11:17:39;;;;;;;2.70;2.50;;;23.20;99.90;;;;;;4989152;28;20541;-68
2022/06/27 11:20:17;;;;;;;4.90;3.13;;;23.30;99.90;;;;;;4982451;28;20438;-69
2022/06/27 11:22:52;;;;;;;4.40;4.10;;;23.50;99.90;;;;;;4976965;28;20458;-75
2022/06/27 11:25:21;;;;;;;2.43;2.33;;;23.60;99.90;;;;;;4984963;28;20517;-73
2022/06/27 11:27:58;;;;;;;2.80;2.53;;;23.60;99.90;;;;;;4984265;28;20966;-71
2022/06/27 11:33:14;;;;;;;3.47;3.17;;;23.60;99.90;;;;;;4984486;28;20434;-67
2022/06/27 11:35:40;;;;;;;3.03;2.83;;;23.60;99.90;;;;;;4999317;28;20525;-67
2022/06/27 11:38:06;;;;;;;2.93;2.73;;;23.60;99.90;;;;;;4984719;28;20486;-65
2022/06/27 11:40:32;;;;;;;4.23;2.50;;;23.50;99.90;;;;;;4979689;28;20493;-68
2022/06/27 11:42:58;;;;;;;2.80;2.57;;;23.50;99.90;;;;;;4988958;28;20941;-71
2022/06/27 11:45:23;;;;;;;3.20;3.00;;;23.40;99.90;;;;;;4987560;28;20211;-69
2022/06/27 11:47:49;;;;;;;5.97;5.47;;;23.50;99.90;;;;;;4981985;28;20203;-69
2022/06/27 11:50:19;;;;;;;2.67;2.47;;;23.20;99.90;;;;;;4984594;28;20226;-66
2022/06/27 11:52:50;;;;;;;3.00;2.80;;;23.30;99.90;;;;;;4989969;28;20275;-66
2022/06/27 11:55:21;;;;;;;2.80;2.70;;;23.20;99.90;;;;;;4989789;28;20858;-65
2022/06/27 11:57:49;;;;;;;3.13;2.87;;;23.20;99.90;;;;;;4984856;28;20485;-67
2022/06/27 12:00:36;;;;;;;3.90;3.37;;;23.20;99.90;;;;;;4985735;28;20454;-66
2022/06/27 12:03:10;;;;;;;2.77;2.57;;;23.20;99.90;;;;;;4990441;28;21130;-67
2022/06/27 12:05:38;;;;;;;5.03;3.57;;;23.20;99.90;;;;;;4989813;28;20466;-69
2022/06/27 12:08:10;;;;;;;3.70;3.10;;;23.10;99.90;;;;;;5012398;28;20446;-66
2022/06/27 12:10:39;;;;;;;2.90;2.70;;;23.10;99.90;;;;;;4989092;28;20454;-68
2022/06/27 12:13:11;;;;;;;3.20;2.60;;;23.00;99.90;;;;;;4986758;28;20513;-66
2022/06/27 12:15:39;;;;;;;2.87;2.57;;;22.90;99.90;;;;;;4987571;28;20442;-66
2022/06/27 12:18:06;;;;;;;4.17;2.30;;;22.90;99.90;;;;;;4981825;28;20948;-76
2022/06/27 12:20:32;;;;;;;3.00;2.37;;;22.90;99.90;;;;;;4986712;28;20889;-65
2022/06/27 12:22:58;;;;;;;4.45;4.15;;;22.70;99.90;;;;;;4989799;28;20974;-65
2022/06/27 12:25:24;;;;;;;4.27;3.80;;;22.70;99.90;;;;;;4989646;28;20215;-65
2022/06/27 12:27:50;;;;;;;4.00;2.80;;;22.70;99.90;;;;;;4987388;28;20191;-73
2022/06/27 12:30:17;;;;;;;2.88;2.67;;;22.70;99.90;;;;;;4989383;28;20461;-67
2022/06/27 12:32:43;;;;;;;5.97;3.70;;;22.60;99.90;;;;;;4989470;28;20282;-69
2022/06/27 12:35:09;;;;;;;3.00;2.80;;;22.50;99.90;;;;;;4987722;28;20199;-70
2022/06/27 12:37:36;;;;;;;2.90;2.70;;;22.40;99.90;;;;;;4988020;28;20615;-71
2022/06/27 12:40:07;;;;;;;3.13;2.67;;;22.20;99.90;;;;;;4978521;28;20509;-67
2022/06/27 12:42:33;;;;;;;3.08;2.10;;;22.30;99.90;;;;;;4989256;28;20197;-71
2022/06/27 12:44:59;;;;;;;2.20;2.10;;;22.20;99.90;;;;;;4988238;28;20215;-70
2022/06/27 12:47:26;;;;;;;3.20;3.00;;;22.20;99.90;;;;;;4985871;28;20191;-69
2022/06/27 12:49:51;;;;;;;3.45;3.10;;;22.30;99.90;;;;;;4988903;28;20446;-69
2022/06/27 12:52:17;;;;;;;3.43;3.20;;;22.10;99.90;;;;;;4978259;28;20666;-69
2022/06/27 12:54:44;;;;;;;5.30;4.80;;;22.10;99.90;;;;;;4987881;28;20307;-66
2022/06/27 12:57:13;;;;;;;3.78;3.47;;;22.20;99.90;;;;;;4986044;28;20246;-65
2022/06/27 12:59:40;;;;;;;3.50;3.30;;;22.30;99.90;;;;;;4984168;28;20207;-65